createdAt,value
2018-07-19T00:00:03.257Z,17.55
2018-07-19T00:00:07.533Z,17.56
2018-07-19T00:00:11.786Z,17.55
2018-07-19T00:00:16.034Z,17.56
2018-07-19T00:00:20.416Z,17.55
2018-07-19T00:00:24.685Z,17.55
2018-07-19T00:00:28.824Z,17.54
2018-07-19T00:00:33.248Z,17.55
2018-07-19T00:00:37.501Z,17.55
2018-07-19T00:00:41.644Z,17.55
2018-07-19T00:00:45.915Z,17.55
2018-07-19T00:00:50.057Z,17.55
2018-07-19T00:00:54.334Z,17.55
2018-07-19T00:00:58.347Z,17.55
2018-07-19T00:01:05.354Z,17.55
2018-07-19T00:01:11.865Z,17.55
2018-07-19T00:01:18.699Z,17.54
2018-07-19T00:01:24.326Z,17.55
2018-07-19T00:01:28.463Z,17.54
2018-07-19T00:01:32.717Z,17.54
2018-07-19T00:01:36.987Z,17.55
2018-07-19T00:01:41.242Z,17.55
2018-07-19T00:01:45.641Z,17.54
2018-07-19T00:01:49.893Z,17.54
2018-07-19T00:01:54.256Z,17.54
2018-07-19T00:01:58.179Z,17.54
2018-07-19T00:02:02.336Z,17.54
2018-07-19T00:02:06.414Z,17.54
2018-07-19T00:02:10.776Z,17.54
2018-07-19T00:02:15.148Z,17.54
2018-07-19T00:02:19.516Z,17.54
2018-07-19T00:02:23.904Z,17.54
2018-07-19T00:02:30.663Z,17.54
2018-07-19T00:02:35.742Z,17.53
2018-07-19T00:02:43.735Z,17.54
2018-07-19T00:02:47.988Z,17.52
2018-07-19T00:02:52.234Z,17.54
2018-07-19T00:02:56.244Z,17.53
2018-07-19T00:03:00.623Z,17.53
2018-07-19T00:03:04.751Z,17.53
2018-07-19T00:03:08.882Z,17.53
2018-07-19T00:03:13.137Z,17.53
2018-07-19T00:03:17.264Z,17.53
2018-07-19T00:03:21.383Z,17.52
2018-07-19T00:03:25.636Z,17.52
2018-07-19T00:03:29.901Z,17.52
2018-07-19T00:03:34.157Z,17.53
2018-07-19T00:03:38.525Z,17.53
2018-07-19T00:03:42.797Z,17.53
2018-07-19T00:03:47.725Z,17.51
2018-07-19T00:03:55.021Z,17.51
2018-07-19T00:04:02.698Z,17.51
2018-07-19T00:04:09.621Z,17.52
2018-07-19T00:04:13.757Z,17.51
2018-07-19T00:04:18.032Z,17.51
2018-07-19T00:04:22.154Z,17.52
2018-07-19T00:04:26.549Z,17.51
2018-07-19T00:04:30.809Z,17.51
2018-07-19T00:04:35.197Z,17.51
2018-07-19T00:04:39.445Z,17.51
2018-07-19T00:04:43.733Z,17.52
2018-07-19T00:04:48.110Z,17.51
2018-07-19T00:04:52.378Z,17.51
2018-07-19T00:04:56.531Z,17.51
2018-07-19T00:05:00.789Z,17.51
2018-07-19T00:05:04.923Z,17.5
2018-07-19T00:05:09.178Z,17.51
2018-07-19T00:05:15.061Z,17.5
2018-07-19T00:05:20.570Z,17.49
2018-07-19T00:05:27.360Z,17.5
2018-07-19T00:05:32.615Z,17.5
2018-07-19T00:05:37.007Z,17.5
2018-07-19T00:05:41.366Z,17.5
2018-07-19T00:05:45.730Z,17.5
2018-07-19T00:05:50.008Z,17.5
2018-07-19T00:05:54.273Z,17.49
2018-07-19T00:05:58.419Z,17.5
2018-07-19T00:06:02.675Z,17.5
2018-07-19T00:06:06.934Z,17.49
2018-07-19T00:06:10.993Z,17.49
2018-07-19T00:06:15.391Z,17.49
2018-07-19T00:06:19.741Z,17.49
2018-07-19T00:06:23.912Z,17.48
2018-07-19T00:06:28.295Z,17.49
2018-07-19T00:06:32.426Z,17.49
2018-07-19T00:06:38.947Z,17.48
2018-07-19T00:06:45.887Z,17.48
2018-07-19T00:06:53.532Z,17.48
2018-07-19T00:07:00.667Z,17.48
2018-07-19T00:07:04.853Z,17.47
2018-07-19T00:07:09.108Z,17.48
2018-07-19T00:07:13.151Z,17.47
2018-07-19T00:07:17.312Z,17.47
2018-07-19T00:07:21.454Z,17.48
2018-07-19T00:07:25.595Z,17.47
2018-07-19T00:07:29.737Z,17.47
2018-07-19T00:07:33.780Z,17.47
2018-07-19T00:07:38.141Z,17.47
2018-07-19T00:07:42.381Z,17.46
2018-07-19T00:07:46.631Z,17.47
2018-07-19T00:07:50.895Z,17.47
2018-07-19T00:07:55.031Z,17.46
2018-07-19T00:07:59.498Z,17.47
2018-07-19T00:08:04.962Z,17.47
2018-07-19T00:08:10.731Z,17.46
2018-07-19T00:08:16.828Z,17.46
2018-07-19T00:08:23.306Z,17.45
2018-07-19T00:08:28.243Z,17.46
2018-07-19T00:08:32.272Z,17.46
2018-07-19T00:08:36.649Z,17.45
2018-07-19T00:08:41.025Z,17.45
2018-07-19T00:08:45.270Z,17.46
2018-07-19T00:08:49.669Z,17.45
2018-07-19T00:08:53.942Z,17.45
2018-07-19T00:08:58.336Z,17.45
2018-07-19T00:09:02.593Z,17.44
2018-07-19T00:09:06.739Z,17.45
2018-07-19T00:09:11.100Z,17.45
2018-07-19T00:09:15.351Z,17.45
2018-07-19T00:09:19.608Z,17.45
2018-07-19T00:09:23.766Z,17.44
2018-07-19T00:09:27.824Z,17.44
2018-07-19T00:09:35.308Z,17.45
2018-07-19T00:09:42.722Z,17.44
2018-07-19T00:09:48.694Z,17.43
2018-07-19T00:09:54.969Z,17.44
2018-07-19T00:09:59.125Z,17.44
2018-07-19T00:10:03.266Z,17.42
2018-07-19T00:10:07.436Z,17.43
2018-07-19T00:10:11.704Z,17.44
2018-07-19T00:10:15.944Z,17.43
2018-07-19T00:10:20.303Z,17.43
2018-07-19T00:10:24.595Z,17.43
2018-07-19T00:10:28.847Z,17.43
2018-07-19T00:10:33.004Z,17.43
2018-07-19T00:10:37.389Z,17.43
2018-07-19T00:10:41.775Z,17.43
2018-07-19T00:10:45.822Z,17.43
2018-07-19T00:10:50.075Z,17.43
2018-07-19T00:10:54.496Z,17.43
2018-07-19T00:11:01.438Z,17.43
2018-07-19T00:11:07.647Z,17.42
2018-07-19T00:11:14.467Z,17.42
2018-07-19T00:11:20.852Z,17.43
2018-07-19T00:11:24.986Z,17.42
2018-07-19T00:11:29.123Z,17.42
2018-07-19T00:11:33.400Z,17.42
2018-07-19T00:11:37.651Z,17.41
2018-07-19T00:11:41.908Z,17.41
2018-07-19T00:11:46.306Z,17.42
2018-07-19T00:11:50.671Z,17.42
2018-07-19T00:11:55.084Z,17.41
2018-07-19T00:11:59.238Z,17.41
2018-07-19T00:12:03.387Z,17.42
2018-07-19T00:12:07.683Z,17.41
2018-07-19T00:12:11.950Z,17.42
2018-07-19T00:12:16.214Z,17.41
2018-07-19T00:12:20.583Z,17.42
2018-07-19T00:12:27.146Z,17.41
2018-07-19T00:12:34.039Z,17.41
2018-07-19T00:12:40.912Z,17.41
2018-07-19T00:12:47.081Z,17.4
2018-07-19T00:12:51.341Z,17.41
2018-07-19T00:12:55.587Z,17.41
2018-07-19T00:12:59.727Z,17.4
2018-07-19T00:13:03.750Z,17.4
2018-07-19T00:13:08.122Z,17.4
2018-07-19T00:13:12.137Z,17.4
2018-07-19T00:13:16.283Z,17.4
2018-07-19T00:13:20.419Z,17.39
2018-07-19T00:13:24.547Z,17.4
2018-07-19T00:13:28.674Z,17.39
2018-07-19T00:13:32.954Z,17.39
2018-07-19T00:13:37.327Z,17.39
2018-07-19T00:13:41.583Z,17.39
2018-07-19T00:13:45.725Z,17.39
2018-07-19T00:13:52.025Z,17.39
2018-07-19T00:13:58.327Z,17.38
2018-07-19T00:14:05.415Z,17.39
2018-07-19T00:14:10.913Z,17.38
2018-07-19T00:14:15.172Z,17.38
2018-07-19T00:14:19.538Z,17.39
2018-07-19T00:14:23.779Z,17.38
2018-07-19T00:14:27.823Z,17.38
2018-07-19T00:14:31.844Z,17.37
2018-07-19T00:14:35.985Z,17.38
2018-07-19T00:14:40.252Z,17.38
2018-07-19T00:14:44.635Z,17.38
2018-07-19T00:14:48.892Z,17.37
2018-07-19T00:14:53.144Z,17.37
2018-07-19T00:14:57.297Z,17.37
2018-07-19T00:15:01.541Z,17.37
2018-07-19T00:15:05.796Z,17.37
2018-07-19T00:15:09.951Z,17.37
2018-07-19T00:15:16.740Z,17.36
2018-07-19T00:15:23.345Z,17.36
2018-07-19T00:15:29.212Z,17.34
2018-07-19T00:15:33.349Z,17.36
2018-07-19T00:15:37.731Z,17.35
2018-07-19T00:15:41.976Z,17.36
2018-07-19T00:15:46.227Z,17.34
2018-07-19T00:15:50.496Z,17.34
2018-07-19T00:15:54.749Z,17.35
2018-07-19T00:15:58.898Z,17.34
2018-07-19T00:16:03.040Z,17.34
2018-07-19T00:16:07.056Z,17.35
2018-07-19T00:16:11.311Z,17.33
2018-07-19T00:16:15.436Z,17.35
2018-07-19T00:16:19.689Z,17.34
2018-07-19T00:16:24.063Z,17.34
2018-07-19T00:16:28.312Z,17.34
2018-07-19T00:16:33.699Z,17.33
2018-07-19T00:16:40.435Z,17.33
2018-07-19T00:16:47.026Z,17.33
2018-07-19T00:16:52.556Z,17.33
2018-07-19T00:16:56.820Z,17.32
2018-07-19T00:17:01.087Z,17.33
2018-07-19T00:17:05.215Z,17.32
2018-07-19T00:17:09.582Z,17.33
2018-07-19T00:17:13.955Z,17.32
2018-07-19T00:17:18.319Z,17.31
2018-07-19T00:17:22.342Z,17.32
2018-07-19T00:17:26.371Z,17.31
2018-07-19T00:17:30.488Z,17.31
2018-07-19T00:17:34.501Z,17.31
2018-07-19T00:17:38.753Z,17.31
2018-07-19T00:17:43.116Z,17.31
2018-07-19T00:17:47.370Z,17.31
2018-07-19T00:17:51.634Z,17.3
2018-07-19T00:17:58.044Z,17.3
2018-07-19T00:18:03.191Z,17.3
2018-07-19T00:18:10.125Z,17.3
2018-07-19T00:18:15.564Z,17.3
2018-07-19T00:18:19.702Z,17.3
2018-07-19T00:18:23.959Z,17.29
2018-07-19T00:18:28.355Z,17.29
2018-07-19T00:18:32.764Z,17.3
2018-07-19T00:18:36.932Z,17.29
2018-07-19T00:18:41.305Z,17.29
2018-07-19T00:18:45.562Z,17.28
2018-07-19T00:18:49.974Z,17.28
2018-07-19T00:18:54.672Z,17.28
2018-07-19T00:18:59.422Z,17.28
2018-07-19T00:19:04.001Z,17.27
2018-07-19T00:19:08.557Z,17.27
2018-07-19T00:19:12.805Z,17.26
2018-07-19T00:19:17.564Z,17.26
2018-07-19T00:19:25.066Z,17.26
2018-07-19T00:19:32.712Z,17.25
2018-07-19T00:19:39.120Z,17.26
2018-07-19T00:19:43.405Z,17.25
2018-07-19T00:19:47.652Z,17.25
2018-07-19T00:19:51.890Z,17.24
2018-07-19T00:19:56.283Z,17.24
2018-07-19T00:20:00.562Z,17.24
2018-07-19T00:20:04.712Z,17.25
2018-07-19T00:20:09.016Z,17.24
2018-07-19T00:20:13.392Z,17.24
2018-07-19T00:20:17.404Z,17.24
2018-07-19T00:20:21.776Z,17.23
2018-07-19T00:20:26.013Z,17.23
2018-07-19T00:20:30.317Z,17.22
2018-07-19T00:20:34.582Z,17.22
2018-07-19T00:20:38.940Z,17.21
2018-07-19T00:20:45.278Z,17.21
2018-07-19T00:20:51.020Z,17.21
2018-07-19T00:20:58.837Z,17.2
2018-07-19T00:21:03.097Z,17.2
2018-07-19T00:21:07.235Z,17.2
2018-07-19T00:21:11.626Z,17.19
2018-07-19T00:21:15.771Z,17.19
2018-07-19T00:21:20.026Z,17.19
2018-07-19T00:21:24.279Z,17.19
2018-07-19T00:21:28.531Z,17.19
2018-07-19T00:21:32.916Z,17.19
2018-07-19T00:21:37.201Z,17.18
2018-07-19T00:21:41.557Z,17.17
2018-07-19T00:21:45.600Z,17.17
2018-07-19T00:21:49.742Z,17.18
2018-07-19T00:21:54.133Z,17.17
2018-07-19T00:21:58.501Z,17.17
2018-07-19T00:22:03.303Z,17.17
2018-07-19T00:22:10.124Z,17.17
2018-07-19T00:22:16.759Z,17.16
2018-07-19T00:22:22.501Z,17.16
2018-07-19T00:22:26.645Z,17.15
2018-07-19T00:22:30.670Z,17.16
2018-07-19T00:22:34.799Z,17.15
2018-07-19T00:22:39.054Z,17.16
2018-07-19T00:22:43.428Z,17.15
2018-07-19T00:22:47.679Z,17.16
2018-07-19T00:22:52.056Z,17.15
2018-07-19T00:22:56.409Z,17.15
2018-07-19T00:23:00.652Z,17.15
2018-07-19T00:23:04.919Z,17.15
2018-07-19T00:23:09.185Z,17.15
2018-07-19T00:23:13.230Z,17.15
2018-07-19T00:23:17.487Z,17.14
2018-07-19T00:23:21.780Z,17.15
2018-07-19T00:23:27.629Z,17.14
2018-07-19T00:23:35.171Z,17.15
2018-07-19T00:23:42.327Z,17.14
2018-07-19T00:23:47.809Z,17.14
2018-07-19T00:23:52.082Z,17.15
2018-07-19T00:23:56.219Z,17.15
2018-07-19T00:24:00.472Z,17.14
2018-07-19T00:24:04.738Z,17.15
2018-07-19T00:24:09.151Z,17.15
2018-07-19T00:24:13.542Z,17.14
2018-07-19T00:24:17.820Z,17.15
2018-07-19T00:24:22.182Z,17.14
2018-07-19T00:24:26.077Z,17.14
2018-07-19T00:24:30.340Z,17.15
2018-07-19T00:24:34.627Z,17.15
2018-07-19T00:24:38.650Z,17.15
2018-07-19T00:24:42.933Z,17.16
2018-07-19T00:24:47.188Z,17.15
2018-07-19T00:24:53.384Z,17.14
2018-07-19T00:24:59.888Z,17.15
2018-07-19T00:25:07.167Z,17.16
2018-07-19T00:25:11.537Z,17.15
2018-07-19T00:25:15.895Z,17.16
2018-07-19T00:25:20.287Z,17.16
2018-07-19T00:25:24.534Z,17.16
2018-07-19T00:25:28.892Z,17.17
2018-07-19T00:25:33.142Z,17.16
2018-07-19T00:25:37.520Z,17.16
2018-07-19T00:25:41.779Z,17.17
2018-07-19T00:25:46.023Z,17.16
2018-07-19T00:25:50.147Z,17.17
2018-07-19T00:25:54.405Z,17.17
2018-07-19T00:25:58.673Z,17.17
2018-07-19T00:26:02.811Z,17.17
2018-07-19T00:26:07.122Z,17.16
2018-07-19T00:26:13.058Z,17.17
2018-07-19T00:26:19.962Z,17.18
2018-07-19T00:26:26.371Z,17.18
2018-07-19T00:26:32.892Z,17.18
2018-07-19T00:26:37.149Z,17.17
2018-07-19T00:26:41.524Z,17.19
2018-07-19T00:26:45.766Z,17.18
2018-07-19T00:26:50.138Z,17.18
2018-07-19T00:26:54.514Z,17.18
2018-07-19T00:26:58.763Z,17.19
2018-07-19T00:27:02.816Z,17.19
2018-07-19T00:27:06.980Z,17.19
2018-07-19T00:27:11.371Z,17.19
2018-07-19T00:27:15.758Z,17.19
2018-07-19T00:27:19.882Z,17.19
2018-07-19T00:27:24.144Z,17.19
2018-07-19T00:27:28.401Z,17.2
2018-07-19T00:27:32.663Z,17.2
2018-07-19T00:27:37.879Z,17.19
2018-07-19T00:27:44.439Z,17.2
2018-07-19T00:27:50.120Z,17.2
2018-07-19T00:27:55.591Z,17.19
2018-07-19T00:27:59.725Z,17.2
2018-07-19T00:28:03.878Z,17.21
2018-07-19T00:28:08.148Z,17.21
2018-07-19T00:28:12.421Z,17.21
2018-07-19T00:28:16.816Z,17.22
2018-07-19T00:28:21.193Z,17.21
2018-07-19T00:28:25.464Z,17.22
2018-07-19T00:28:29.722Z,17.21
2018-07-19T00:28:33.967Z,17.22
2018-07-19T00:28:38.330Z,17.22
2018-07-19T00:28:42.574Z,17.22
2018-07-19T00:28:46.994Z,17.23
2018-07-19T00:28:51.382Z,17.22
2018-07-19T00:28:55.740Z,17.24
2018-07-19T00:29:02.277Z,17.23
2018-07-19T00:29:08.533Z,17.24
2018-07-19T00:29:15.343Z,17.24
2018-07-19T00:29:19.626Z,17.24
2018-07-19T00:29:23.890Z,17.24
2018-07-19T00:29:28.256Z,17.25
2018-07-19T00:29:32.516Z,17.24
2018-07-19T00:29:36.766Z,17.24
2018-07-19T00:29:41.131Z,17.25
2018-07-19T00:29:45.377Z,17.24
2018-07-19T00:29:49.521Z,17.25
2018-07-19T00:29:53.765Z,17.25
2018-07-19T00:29:57.773Z,17.25
2018-07-19T00:30:02.021Z,17.24
2018-07-19T00:30:06.228Z,17.25
2018-07-19T00:30:10.498Z,17.25
2018-07-19T00:30:14.641Z,17.26
2018-07-19T00:30:19.742Z,17.25
2018-07-19T00:30:26.672Z,17.26
2018-07-19T00:30:33.303Z,17.26
2018-07-19T00:30:37.918Z,17.26
2018-07-19T00:30:42.089Z,17.27
2018-07-19T00:30:46.352Z,17.27
2018-07-19T00:30:50.697Z,17.26
2018-07-19T00:30:54.969Z,17.27
2018-07-19T00:30:59.219Z,17.27
2018-07-19T00:31:03.375Z,17.27
2018-07-19T00:31:07.669Z,17.27
2018-07-19T00:31:11.924Z,17.28
2018-07-19T00:31:16.180Z,17.28
2018-07-19T00:31:20.538Z,17.28
2018-07-19T00:31:24.905Z,17.27
2018-07-19T00:31:29.050Z,17.28
2018-07-19T00:31:33.312Z,17.27
2018-07-19T00:31:38.447Z,17.28
2018-07-19T00:31:45.491Z,17.27
2018-07-19T00:31:52.275Z,17.27
2018-07-19T00:31:57.621Z,17.28
2018-07-19T00:32:01.885Z,17.29
2018-07-19T00:32:06.028Z,17.28
2018-07-19T00:32:10.182Z,17.28
2018-07-19T00:32:14.433Z,17.29
2018-07-19T00:32:18.801Z,17.28
2018-07-19T00:32:23.030Z,17.28
2018-07-19T00:32:27.403Z,17.28
2018-07-19T00:32:31.694Z,17.28
2018-07-19T00:32:36.065Z,17.28
2018-07-19T00:32:40.107Z,17.27
2018-07-19T00:32:44.128Z,17.28
2018-07-19T00:32:48.525Z,17.29
2018-07-19T00:32:52.651Z,17.28
2018-07-19T00:32:56.882Z,17.27
2018-07-19T00:33:03.942Z,17.28
2018-07-19T00:33:10.518Z,17.28
2018-07-19T00:33:17.499Z,17.28
2018-07-19T00:33:21.763Z,17.27
2018-07-19T00:33:25.803Z,17.28
2018-07-19T00:33:30.171Z,17.28
2018-07-19T00:33:34.212Z,17.28
2018-07-19T00:33:38.595Z,17.27
2018-07-19T00:33:42.637Z,17.27
2018-07-19T00:33:47.117Z,17.27
2018-07-19T00:33:51.821Z,17.27
2018-07-19T00:33:56.531Z,17.28
2018-07-19T00:34:01.179Z,17.28
2018-07-19T00:34:05.558Z,17.27
2018-07-19T00:34:09.929Z,17.27
2018-07-19T00:34:14.199Z,17.26
2018-07-19T00:34:18.388Z,17.27
2018-07-19T00:34:24.195Z,17.26
2018-07-19T00:34:31.013Z,17.26
2018-07-19T00:34:38.024Z,17.26
2018-07-19T00:34:42.673Z,17.27
2018-07-19T00:34:46.816Z,17.26
2018-07-19T00:34:51.070Z,17.27
2018-07-19T00:34:55.332Z,17.26
2018-07-19T00:34:59.592Z,17.27
2018-07-19T00:35:03.737Z,17.26
2018-07-19T00:35:07.768Z,17.26
2018-07-19T00:35:12.213Z,17.26
2018-07-19T00:35:16.645Z,17.26
2018-07-19T00:35:21.048Z,17.26
2018-07-19T00:35:25.217Z,17.25
2018-07-19T00:35:29.387Z,17.25
2018-07-19T00:35:33.569Z,17.26
2018-07-19T00:35:37.993Z,17.26
2018-07-19T00:35:42.285Z,17.26
2018-07-19T00:35:46.598Z,17.25
2018-07-19T00:35:51.963Z,17.25
2018-07-19T00:35:58.628Z,17.24
2018-07-19T00:36:06.751Z,17.25
2018-07-19T00:36:11.674Z,17.25
2018-07-19T00:36:16.064Z,17.24
2018-07-19T00:36:20.216Z,17.24
2018-07-19T00:36:24.485Z,17.25
2018-07-19T00:36:28.840Z,17.24
2018-07-19T00:36:33.248Z,17.24
2018-07-19T00:36:37.619Z,17.24
2018-07-19T00:36:41.774Z,17.24
2018-07-19T00:36:45.934Z,17.24
2018-07-19T00:36:50.169Z,17.24
2018-07-19T00:36:54.565Z,17.24
2018-07-19T00:36:58.695Z,17.24
2018-07-19T00:37:02.990Z,17.24
2018-07-19T00:37:07.263Z,17.23
2018-07-19T00:37:12.346Z,17.23
2018-07-19T00:37:18.727Z,17.23
2018-07-19T00:37:24.753Z,17.23
2018-07-19T00:37:30.779Z,17.22
2018-07-19T00:37:35.147Z,17.22
2018-07-19T00:37:39.406Z,17.22
2018-07-19T00:37:43.417Z,17.22
2018-07-19T00:37:47.801Z,17.22
2018-07-19T00:37:52.079Z,17.22
2018-07-19T00:37:56.092Z,17.22
2018-07-19T00:38:00.349Z,17.21
2018-07-19T00:38:04.511Z,17.21
2018-07-19T00:38:08.770Z,17.21
2018-07-19T00:38:13.006Z,17.2
2018-07-19T00:38:17.270Z,17.2
2018-07-19T00:38:21.658Z,17.2
2018-07-19T00:38:25.922Z,17.2
2018-07-19T00:38:30.172Z,17.2
2018-07-19T00:38:36.639Z,17.19
2018-07-19T00:38:42.642Z,17.18
2018-07-19T00:38:49.340Z,17.19
2018-07-19T00:38:53.936Z,17.18
2018-07-19T00:38:58.197Z,17.2
2018-07-19T00:39:02.336Z,17.18
2018-07-19T00:39:06.372Z,17.18
2018-07-19T00:39:10.710Z,17.18
2018-07-19T00:39:14.853Z,17.18
2018-07-19T00:39:19.130Z,17.18
2018-07-19T00:39:23.378Z,17.18
2018-07-19T00:39:27.773Z,17.17
2018-07-19T00:39:32.023Z,17.17
2018-07-19T00:39:36.320Z,17.17
2018-07-19T00:39:40.699Z,17.17
2018-07-19T00:39:44.833Z,17.16
2018-07-19T00:39:48.975Z,17.16
2018-07-19T00:39:53.246Z,17.16
2018-07-19T00:39:59.152Z,17.15
2018-07-19T00:40:05.403Z,17.16
2018-07-19T00:40:12.314Z,17.16
2018-07-19T00:40:16.691Z,17.15
2018-07-19T00:40:20.948Z,17.14
2018-07-19T00:40:25.200Z,17.15
2018-07-19T00:40:29.540Z,17.14
2018-07-19T00:40:33.920Z,17.15
2018-07-19T00:40:38.287Z,17.14
2018-07-19T00:40:42.544Z,17.14
2018-07-19T00:40:46.705Z,17.14
2018-07-19T00:40:50.944Z,17.14
2018-07-19T00:40:55.219Z,17.14
2018-07-19T00:40:59.235Z,17.13
2018-07-19T00:41:03.585Z,17.13
2018-07-19T00:41:07.873Z,17.13
2018-07-19T00:41:12.241Z,17.13
2018-07-19T00:41:19.106Z,17.12
2018-07-19T00:41:25.929Z,17.12
2018-07-19T00:41:32.835Z,17.12
2018-07-19T00:41:37.722Z,17.12
2018-07-19T00:41:41.755Z,17.12
2018-07-19T00:41:46.013Z,17.12
2018-07-19T00:41:50.295Z,17.11
2018-07-19T00:41:54.548Z,17.11
2018-07-19T00:41:58.922Z,17.11
2018-07-19T00:42:03.309Z,17.11
2018-07-19T00:42:07.453Z,17.11
2018-07-19T00:42:11.828Z,17.09
2018-07-19T00:42:15.968Z,17.1
2018-07-19T00:42:20.235Z,17.1
2018-07-19T00:42:24.475Z,17.09
2018-07-19T00:42:28.728Z,17.1
2018-07-19T00:42:33.009Z,17.08
2018-07-19T00:42:37.392Z,17.09
2018-07-19T00:42:44.874Z,17.09
2018-07-19T00:42:50.806Z,17.08
2018-07-19T00:42:57.579Z,17.08
2018-07-19T00:43:01.604Z,17.08
2018-07-19T00:43:05.744Z,17.08
2018-07-19T00:43:09.999Z,17.07
2018-07-19T00:43:14.377Z,17.07
2018-07-19T00:43:18.772Z,17.07
2018-07-19T00:43:23.023Z,17.07
2018-07-19T00:43:27.405Z,17.06
2018-07-19T00:43:31.775Z,17.07
2018-07-19T00:43:36.081Z,17.06
2018-07-19T00:43:40.483Z,17.07
2018-07-19T00:43:44.731Z,17.06
2018-07-19T00:43:48.979Z,17.06
2018-07-19T00:43:53.257Z,17.07
2018-07-19T00:43:57.541Z,17.06
2018-07-19T00:44:02.784Z,17.04
2018-07-19T00:44:09.296Z,17.05
2018-07-19T00:44:15.946Z,17.03
2018-07-19T00:44:22.082Z,17.04
2018-07-19T00:44:26.345Z,17.04
2018-07-19T00:44:30.588Z,17.03
2018-07-19T00:44:34.989Z,17.03
2018-07-19T00:44:39.247Z,17.03
2018-07-19T00:44:43.520Z,17.03
2018-07-19T00:44:47.912Z,17.03
2018-07-19T00:44:52.166Z,17.03
2018-07-19T00:44:56.428Z,17.03
2018-07-19T00:45:00.799Z,17.02
2018-07-19T00:45:04.864Z,17.02
2018-07-19T00:45:09.133Z,17.03
2018-07-19T00:45:13.384Z,17.02
2018-07-19T00:45:17.743Z,17.02
2018-07-19T00:45:22.003Z,17.01
2018-07-19T00:45:28.450Z,17.01
2018-07-19T00:45:34.864Z,17.01
2018-07-19T00:45:42.395Z,17.01
2018-07-19T00:45:47.075Z,17.01
2018-07-19T00:45:51.455Z,17
2018-07-19T00:45:55.702Z,17
2018-07-19T00:45:59.735Z,17
2018-07-19T00:46:03.998Z,17
2018-07-19T00:46:08.045Z,16.99
2018-07-19T00:46:12.421Z,17
2018-07-19T00:46:16.695Z,17
2018-07-19T00:46:20.953Z,17
2018-07-19T00:46:25.017Z,16.99
2018-07-19T00:46:29.317Z,16.99
2018-07-19T00:46:33.466Z,16.99
2018-07-19T00:46:37.612Z,16.98
2018-07-19T00:46:41.988Z,16.99
2018-07-19T00:46:46.233Z,16.98
2018-07-19T00:46:53.225Z,16.98
2018-07-19T00:47:00.263Z,16.98
2018-07-19T00:47:06.543Z,16.98
2018-07-19T00:47:10.816Z,16.97
2018-07-19T00:47:15.064Z,16.97
2018-07-19T00:47:19.445Z,16.97
2018-07-19T00:47:23.792Z,16.97
2018-07-19T00:47:28.052Z,16.97
2018-07-19T00:47:32.450Z,16.97
2018-07-19T00:47:36.586Z,16.96
2018-07-19T00:47:40.721Z,16.97
2018-07-19T00:47:44.987Z,16.96
2018-07-19T00:47:49.127Z,16.96
2018-07-19T00:47:53.416Z,16.96
2018-07-19T00:47:57.661Z,16.95
2018-07-19T00:48:02.116Z,16.96
2018-07-19T00:48:06.137Z,16.96
2018-07-19T00:48:13.197Z,16.96
2018-07-19T00:48:20.421Z,16.94
2018-07-19T00:48:26.479Z,16.95
2018-07-19T00:48:30.638Z,16.94
2018-07-19T00:48:35.036Z,16.95
2018-07-19T00:48:39.312Z,16.95
2018-07-19T00:48:43.746Z,16.94
2018-07-19T00:48:47.993Z,16.94
2018-07-19T00:48:52.249Z,16.94
2018-07-19T00:48:56.541Z,16.94
2018-07-19T00:49:00.684Z,16.93
2018-07-19T00:49:04.830Z,16.94
2018-07-19T00:49:09.230Z,16.93
2018-07-19T00:49:13.434Z,16.93
2018-07-19T00:49:17.816Z,16.93
2018-07-19T00:49:22.065Z,16.92
2018-07-19T00:49:26.343Z,16.93
2018-07-19T00:49:32.924Z,16.93
2018-07-19T00:49:39.750Z,16.93
2018-07-19T00:49:46.335Z,16.92
2018-07-19T00:49:50.637Z,16.92
2018-07-19T00:49:55.024Z,16.92
2018-07-19T00:49:59.297Z,16.93
2018-07-19T00:50:03.564Z,16.91
2018-07-19T00:50:07.596Z,16.92
2018-07-19T00:50:11.851Z,16.91
2018-07-19T00:50:16.135Z,16.91
2018-07-19T00:50:20.405Z,16.92
2018-07-19T00:50:24.424Z,16.91
2018-07-19T00:50:28.694Z,16.9
2018-07-19T00:50:33.055Z,16.91
2018-07-19T00:50:37.312Z,16.9
2018-07-19T00:50:41.693Z,16.9
2018-07-19T00:50:45.835Z,16.9
2018-07-19T00:50:51.834Z,16.91
2018-07-19T00:50:58.737Z,16.91
2018-07-19T00:51:04.541Z,16.9
2018-07-19T00:51:09.332Z,16.9
2018-07-19T00:51:13.746Z,16.9
2018-07-19T00:51:18.129Z,16.9
2018-07-19T00:51:22.331Z,16.89
2018-07-19T00:51:26.611Z,16.9
2018-07-19T00:51:31.043Z,16.89
2018-07-19T00:51:35.193Z,16.89
2018-07-19T00:51:39.437Z,16.89
2018-07-19T00:51:43.796Z,16.89
2018-07-19T00:51:48.042Z,16.89
2018-07-19T00:51:52.181Z,16.88
2018-07-19T00:51:56.438Z,16.89
2018-07-19T00:52:00.696Z,16.88
2018-07-19T00:52:04.668Z,16.89
2018-07-19T00:52:09.238Z,16.88
2018-07-19T00:52:15.323Z,16.88
2018-07-19T00:52:22.397Z,16.88
2018-07-19T00:52:28.365Z,16.87
2018-07-19T00:52:32.732Z,16.87
2018-07-19T00:52:36.861Z,16.87
2018-07-19T00:52:41.116Z,16.87
2018-07-19T00:52:45.256Z,16.88
2018-07-19T00:52:49.576Z,16.87
2018-07-19T00:52:53.962Z,16.88
2018-07-19T00:52:58.110Z,16.87
2018-07-19T00:53:02.138Z,16.88
2018-07-19T00:53:06.298Z,16.88
2018-07-19T00:53:10.444Z,16.87
2018-07-19T00:53:14.813Z,16.87
2018-07-19T00:53:18.953Z,16.87
2018-07-19T00:53:23.314Z,16.87
2018-07-19T00:53:27.566Z,16.87
2018-07-19T00:53:34.082Z,16.87
2018-07-19T00:53:40.953Z,16.88
2018-07-19T00:53:48.320Z,16.87
2018-07-19T00:53:52.441Z,16.87
2018-07-19T00:53:56.706Z,16.87
2018-07-19T00:54:00.828Z,16.87
2018-07-19T00:54:05.092Z,16.87
2018-07-19T00:54:09.500Z,16.87
2018-07-19T00:54:13.885Z,16.87
2018-07-19T00:54:18.249Z,16.87
2018-07-19T00:54:22.631Z,16.86
2018-07-19T00:54:27.001Z,16.87
2018-07-19T00:54:31.365Z,16.86
2018-07-19T00:54:35.737Z,16.87
2018-07-19T00:54:39.976Z,16.86
2018-07-19T00:54:44.333Z,16.87
2018-07-19T00:54:48.591Z,16.87
2018-07-19T00:54:54.496Z,16.87
2018-07-19T00:55:00.794Z,16.86
2018-07-19T00:55:06.532Z,16.87
2018-07-19T00:55:11.144Z,16.86
2018-07-19T00:55:15.529Z,16.87
2018-07-19T00:55:19.668Z,16.87
2018-07-19T00:55:23.915Z,16.87
2018-07-19T00:55:28.297Z,16.87
2018-07-19T00:55:32.564Z,16.87
2018-07-19T00:55:36.926Z,16.87
2018-07-19T00:55:41.292Z,16.87
2018-07-19T00:55:45.555Z,16.87
2018-07-19T00:55:49.590Z,16.87
2018-07-19T00:55:53.845Z,16.87
2018-07-19T00:55:58.219Z,16.88
2018-07-19T00:56:02.467Z,16.86
2018-07-19T00:56:06.796Z,16.87
2018-07-19T00:56:11.057Z,16.87
2018-07-19T00:56:18.444Z,16.87
2018-07-19T00:56:26.029Z,16.87
2018-07-19T00:56:31.854Z,16.86
2018-07-19T00:56:36.228Z,16.86
2018-07-19T00:56:40.603Z,16.87
2018-07-19T00:56:44.754Z,16.87
2018-07-19T00:56:49.145Z,16.87
2018-07-19T00:56:53.548Z,16.86
2018-07-19T00:56:57.942Z,16.86
2018-07-19T00:57:02.190Z,16.87
2018-07-19T00:57:06.443Z,16.87
2018-07-19T00:57:10.799Z,16.87
2018-07-19T00:57:15.172Z,16.87
2018-07-19T00:57:19.428Z,16.87
2018-07-19T00:57:23.667Z,16.86
2018-07-19T00:57:27.936Z,16.86
2018-07-19T00:57:32.065Z,16.86
2018-07-19T00:57:38.648Z,16.86
2018-07-19T00:57:45.816Z,16.86
2018-07-19T00:57:53.075Z,16.86
2018-07-19T00:57:57.112Z,16.86
2018-07-19T00:58:01.364Z,16.86
2018-07-19T00:58:05.400Z,16.86
2018-07-19T00:58:09.555Z,16.86
2018-07-19T00:58:13.797Z,16.86
2018-07-19T00:58:18.073Z,16.86
2018-07-19T00:58:22.447Z,16.86
2018-07-19T00:58:26.845Z,16.86
2018-07-19T00:58:31.206Z,16.86
2018-07-19T00:58:35.488Z,16.86
2018-07-19T00:58:39.391Z,16.87
2018-07-19T00:58:43.637Z,16.87
2018-07-19T00:58:47.883Z,16.87
2018-07-19T00:58:52.174Z,16.86
2018-07-19T00:58:57.340Z,16.86
2018-07-19T00:59:03.484Z,16.86
2018-07-19T00:59:10.889Z,16.86
2018-07-19T00:59:16.448Z,16.86
2018-07-19T00:59:20.819Z,16.86
2018-07-19T00:59:25.186Z,16.86
2018-07-19T00:59:29.197Z,16.86
2018-07-19T00:59:33.352Z,16.85
2018-07-19T00:59:37.481Z,16.87
2018-07-19T00:59:41.502Z,16.85
2018-07-19T00:59:45.759Z,16.86
2018-07-19T00:59:50.011Z,16.86
2018-07-19T00:59:54.292Z,16.86
2018-07-19T00:59:58.564Z,16.85
2018-07-19T01:00:02.725Z,16.85
2018-07-19T01:00:06.627Z,16.85
2018-07-19T01:00:10.680Z,16.85
2018-07-19T01:00:14.941Z,16.86
2018-07-19T01:00:21.506Z,16.86
2018-07-19T01:00:27.392Z,16.86
2018-07-19T01:00:35.323Z,16.85